クライストチャーチ の空港の天気 - METARとTAF

クライストチャーチ国際空港 ( NZCH / CHC ) - ニュージーランド クライストチャーチ
飛行場実況気象(Metar)
観測時間05/08 09:00 NZST (05/07 21:00 UTC)
風向・風速北北東 2m/s
視程10km以上
天気現象
なし
気温10℃
湿度100%
気圧1026hPa
METARNZCH 072100Z AUTO 03003KT 9999 NCD 10/10 Q1026 NOSIG
過去の天気等 Google飛行場航空写真 Wunderground天気予報

過去48時間のMETAR

飛行場予報(TAF)
発表時間: 5/08 05:03 NZST (5/07 17:03 UTC)
予報対象時間: 8日6時 NZST ~ 9日6時 NZST
風向・風速東北東 3m/s
視程10km以上
全天の4割程度の雲 雲底高度 340m
8日6時 NZST ~ 8日8時 NZST に一時的に
全天の8割程度の雲 雲底高度 300m
8日12時 NZST ~ 8日14時 NZST に徐々に
風向・風速東北東 8m/s
TAF NZCH 071703Z 0718/0818 06005KT 9999 SCT011
TEMPO 0718/0720 BKN010
BECMG 0800/0802 06015KT